Time;durP1;ratioP1;P1;durP2;ratioP2;P2;SDS_P1;SDS_P2;PMS_P1;PMS_P2;Temp;Humidity;BMP_temperature;BMP_pressure;BME280_temperature;BME280_humidity;BME280_pressure;Samples;Min_cycle;Max_cycle;Signal;HPM_P1;HPM_P2
2022/09/13 00:01:26;;;;;;;0.00;0.00;;;17.10;99.90;;;;;;5069187;28;20044;-79
2022/09/13 00:03:53;;;;;;;0.00;0.00;;;17.00;99.90;;;;;;5070106;28;20044;-80
2022/09/13 00:06:21;;;;;;;0.00;0.00;;;17.00;99.90;;;;;;5069653;28;20047;-79
2022/09/13 00:08:48;;;;;;;0.00;0.00;;;17.00;99.90;;;;;;5069755;28;20115;-78
2022/09/13 00:11:17;;;;;;;0.10;0.10;;;17.00;99.90;;;;;;5076511;28;20450;-78
2022/09/13 00:13:45;;;;;;;0.00;0.00;;;17.00;99.90;;;;;;5071413;28;20583;-79
2022/09/13 00:16:13;;;;;;;0.00;0.00;;;17.00;99.90;;;;;;5064877;28;20037;-79
2022/09/13 00:18:41;;;;;;;0.00;0.00;;;17.10;99.90;;;;;;5071069;28;20041;-78
2022/09/13 00:21:11;;;;;;;0.00;0.00;;;17.10;99.90;;;;;;5067297;28;20488;-80
2022/09/13 00:23:38;;;;;;;0.00;0.00;;;17.00;99.90;;;;;;5071622;28;20102;-79
2022/09/13 00:26:07;;;;;;;0.05;0.05;;;17.00;99.90;;;;;;5069941;28;20043;-78
2022/09/13 00:28:34;;;;;;;0.00;0.00;;;17.00;99.90;;;;;;5065737;28;20137;-79
2022/09/13 00:31:05;;;;;;;0.00;0.00;;;17.00;99.90;;;;;;5069453;28;20037;-79
2022/09/13 00:33:33;;;;;;;0.00;0.00;;;16.90;99.90;;;;;;5066555;28;20040;-80
2022/09/13 00:36:03;;;;;;;0.00;0.00;;;17.00;99.90;;;;;;5068564;28;20029;-80
2022/09/13 00:38:30;;;;;;;0.00;0.00;;;17.10;99.90;;;;;;5070023;28;20037;-79
2022/09/13 00:40:56;;;;;;;0.00;0.00;;;17.10;99.90;;;;;;5070043;28;20036;-79
2022/09/13 00:43:41;;;;;;;0.05;0.05;;;17.10;99.90;;;;;;5070423;28;20040;-79
2022/09/13 00:46:11;;;;;;;0.00;0.00;;;17.10;99.90;;;;;;5078258;28;20032;-79
2022/09/13 00:48:38;;;;;;;0.00;0.00;;;17.00;99.90;;;;;;5066686;28;20037;-79
2022/09/13 00:51:08;;;;;;;0.00;0.00;;;17.10;99.90;;;;;;5071906;28;20040;-77
2022/09/13 00:53:40;;;;;;;0.00;0.00;;;17.10;99.90;;;;;;5076871;28;20044;-77
2022/09/13 00:56:11;;;;;;;0.00;0.00;;;17.10;99.90;;;;;;5068453;28;20497;-79
2022/09/13 00:58:41;;;;;;;0.00;0.00;;;17.10;99.90;;;;;;5068056;28;20025;-79
2022/09/13 01:01:12;;;;;;;0.00;0.00;;;17.20;99.90;;;;;;5062677;28;20457;-79
2022/09/13 01:03:41;;;;;;;0.00;0.00;;;17.20;99.90;;;;;;5066544;28;20048;-78
2022/09/13 01:06:13;;;;;;;0.00;0.00;;;17.20;99.90;;;;;;5068508;28;20042;-79
2022/09/13 01:08:44;;;;;;;0.00;0.00;;;17.20;99.90;;;;;;5066791;28;20430;-78
2022/09/13 01:11:21;;;;;;;0.00;0.00;;;17.30;99.90;;;;;;5070312;28;20409;-78
2022/09/13 01:13:50;;;;;;;0.00;0.00;;;17.30;99.90;;;;;;5068844;28;20496;-79
2022/09/13 01:16:18;;;;;;;0.00;0.00;;;17.30;99.90;;;;;;5064270;28;20501;-78
2022/09/13 01:18:45;;;;;;;0.00;0.00;;;17.40;99.90;;;;;;5068034;28;20044;-80
2022/09/13 01:21:35;;;;;;;0.00;0.00;;;17.40;99.90;;;;;;5072994;28;20043;-78
2022/09/13 01:24:24;;;;;;;0.00;0.00;;;17.40;99.90;;;;;;5072889;28;20041;-80
2022/09/13 01:27:16;;;;;;;0.00;0.00;;;17.40;99.90;;;;;;5080354;28;20050;-78
2022/09/13 01:30:10;;;;;;;0.00;0.00;;;17.50;99.90;;;;;;5056578;28;20052;-79
2022/09/13 01:33:05;;;;;;;0.00;0.00;;;17.50;99.90;;;;;;5058981;28;20064;-78
2022/09/13 01:35:46;;;;;;;0.00;0.00;;;17.50;99.90;;;;;;5068946;28;20044;-79
2022/09/13 01:38:29;;;;;;;0.00;0.00;;;17.50;99.90;;;;;;5067060;28;20106;-78
2022/09/13 01:41:05;;;;;;;0.00;0.00;;;17.50;99.90;;;;;;5066605;28;20037;-79
2022/09/13 01:43:41;;;;;;;0.00;0.00;;;17.50;99.90;;;;;;5069570;28;20040;-78
2022/09/13 01:46:16;;;;;;;0.00;0.00;;;17.50;99.90;;;;;;5064327;28;20046;-78
2022/09/13 01:48:54;;;;;;;0.00;0.00;;;17.50;99.90;;;;;;5069065;28;20508;-79
2022/09/13 01:51:26;;;;;;;0.00;0.00;;;17.50;99.90;;;;;;5070425;28;20068;-78
2022/09/13 01:54:04;;;;;;;0.00;0.00;;;17.50;99.90;;;;;;5073920;28;20044;-78
2022/09/13 01:59:29;;;;;;;0.00;0.00;;;17.50;99.90;;;;;;5011533;28;20069;-86
2022/09/13 02:02:02;;;;;;;0.00;0.00;;;17.50;99.90;;;;;;5009676;28;20116;-84
2022/09/13 02:04:37;;;;;;;0.00;0.00;;;17.40;99.90;;;;;;5012420;28;20045;-85
2022/09/13 02:07:09;;;;;;;0.00;0.00;;;17.50;99.90;;;;;;5010547;28;20564;-85
2022/09/13 02:09:39;;;;;;;0.00;0.00;;;17.50;99.90;;;;;;5010466;28;20471;-84
2022/09/13 02:12:12;;;;;;;0.00;0.00;;;17.50;99.90;;;;;;5007922;28;20052;-86
2022/09/13 02:14:42;;;;;;;0.00;0.00;;;17.60;99.90;;;;;;5009259;28;20048;-86
2022/09/13 02:17:15;;;;;;;0.00;0.00;;;17.60;99.90;;;;;;5009287;28;20050;-86
2022/09/13 02:19:48;;;;;;;0.00;0.00;;;17.60;99.90;;;;;;5009083;28;20042;-85
2022/09/13 02:22:19;;;;;;;0.00;0.00;;;18.70;99.90;;;;;;5012330;28;20048;-86
2022/09/13 02:24:50;;;;;;;0.00;0.00;;;17.50;99.90;;;;;;5012979;28;20076;-85
2022/09/13 02:27:22;;;;;;;0.00;0.00;;;17.50;99.90;;;;;;5009157;28;20066;-86
2022/09/13 02:29:54;;;;;;;0.00;0.00;;;17.50;99.90;;;;;;5011637;28;20048;-86
2022/09/13 02:32:26;;;;;;;0.00;0.00;;;17.50;99.90;;;;;;5009419;28;20395;-85
2022/09/13 02:34:56;;;;;;;0.00;0.00;;;17.50;99.90;;;;;;5029042;28;20042;-86
2022/09/13 02:37:27;;;;;;;0.00;0.00;;;17.60;99.90;;;;;;5015558;28;20513;-85
2022/09/13 02:39:58;;;;;;;0.00;0.00;;;17.50;99.90;;;;;;5015599;28;20438;-85
2022/09/13 02:42:29;;;;;;;0.00;0.00;;;17.50;99.90;;;;;;5029030;28;20052;-85
2022/09/13 02:45:00;;;;;;;0.00;0.00;;;17.60;99.90;;;;;;5010474;28;20052;-86
2022/09/13 02:47:37;;;;;;;0.00;0.00;;;17.60;99.90;;;;;;5014576;28;20068;-85
2022/09/13 02:50:20;;;;;;;0.00;0.00;;;17.50;99.90;;;;;;5014536;28;20602;-85
2022/09/13 02:52:53;;;;;;;0.00;0.00;;;17.50;99.90;;;;;;5015439;28;20053;-85
2022/09/13 02:55:24;;;;;;;0.00;0.00;;;17.40;99.90;;;;;;5016051;28;20081;-85
2022/09/13 02:57:58;;;;;;;0.00;0.00;;;17.40;99.90;;;;;;5012050;28;20041;-85
2022/09/13 03:00:25;;;;;;;0.00;0.00;;;17.40;99.90;;;;;;5008998;28;20048;-85
2022/09/13 03:02:55;;;;;;;0.00;0.00;;;17.30;99.90;;;;;;5013340;28;20331;-84
2022/09/13 03:05:22;;;;;;;0.00;0.00;;;17.30;99.90;;;;;;5010392;28;20161;-86
2022/09/13 03:07:50;;;;;;;0.00;0.00;;;17.20;99.90;;;;;;5014789;28;20520;-84
2022/09/13 03:10:17;;;;;;;0.00;0.00;;;17.30;99.90;;;;;;5025965;28;20578;-85
2022/09/13 03:13:17;;;;;;;0.00;0.00;;;17.30;99.90;;;;;;5004404;28;20128;-85
2022/09/13 03:15:58;;;;;;;0.00;0.00;;;17.30;99.90;;;;;;5013163;28;20050;-85
2022/09/13 03:18:44;;;;;;;0.00;0.00;;;17.40;99.90;;;;;;5012917;28;20045;-85
2022/09/13 03:21:28;;;;;;;0.00;0.00;;;17.30;99.90;;;;;;5007283;28;20538;-86
2022/09/13 03:24:06;;;;;;;0.00;0.00;;;17.30;99.90;;;;;;5018479;28;20049;-86
2022/09/13 03:26:43;;;;;;;0.00;0.00;;;17.30;99.90;;;;;;5004292;28;20056;-86
2022/09/13 03:29:23;;;;;;;0.00;0.00;;;17.30;99.90;;;;;;4998991;28;20068;-85
2022/09/13 03:32:01;;;;;;;0.00;0.00;;;17.30;99.90;;;;;;5010519;28;22158;-83
2022/09/13 03:34:41;;;;;;;0.00;0.00;;;17.30;99.90;;;;;;5002901;28;20048;-85
2022/09/13 03:37:17;;;;;;;0.00;0.00;;;17.10;99.90;;;;;;5017578;28;20049;-85
2022/09/13 03:39:49;;;;;;;0.00;0.00;;;17.20;99.90;;;;;;5010629;28;20053;-87
2022/09/13 03:42:22;;;;;;;0.00;0.00;;;17.20;99.90;;;;;;5007641;28;20042;-86
2022/09/13 03:44:52;;;;;;;0.00;0.00;;;17.20;99.90;;;;;;5005478;28;20604;-85
2022/09/13 03:47:20;;;;;;;;;;;19.90;99.90;;;;;;5016847;28;20066;-86
2022/09/13 03:49:50;;;;;;;0.00;0.00;;;17.20;99.90;;;;;;5009286;28;19921;-86
2022/09/13 03:52:18;;;;;;;0.00;0.00;;;17.20;99.90;;;;;;5007592;28;20042;-83
2022/09/13 03:54:45;;;;;;;0.00;0.00;;;17.10;99.90;;;;;;4999192;28;20140;-86
2022/09/13 03:57:14;;;;;;;0.00;0.00;;;17.00;99.90;;;;;;4997584;28;20129;-86
2022/09/13 03:59:45;;;;;;;0.00;0.00;;;17.00;99.90;;;;;;5008593;28;20493;-87
2022/09/13 04:02:12;;;;;;;0.00;0.00;;;17.00;99.90;;;;;;5016556;28;20912;-84
2022/09/13 04:04:40;;;;;;;0.00;0.00;;;17.00;99.90;;;;;;5007272;28;20050;-87
2022/09/13 04:07:10;;;;;;;0.00;0.00;;;17.00;99.90;;;;;;5010814;28;20054;-85
2022/09/13 04:09:38;;;;;;;0.00;0.00;;;17.00;99.90;;;;;;5014307;28;20789;-87
2022/09/13 04:12:05;;;;;;;0.00;0.00;;;17.00;99.90;;;;;;5008621;28;20050;-87
2022/09/13 04:14:32;;;;;;;0.00;0.00;;;17.00;99.90;;;;;;5008933;28;20392;-85
2022/09/13 04:16:59;;;;;;;0.00;0.00;;;16.90;99.90;;;;;;5013238;28;20037;-85
2022/09/13 04:19:26;;;;;;;0.00;0.00;;;17.00;99.90;;;;;;5011681;28;20042;-86
2022/09/13 04:21:54;;;;;;;0.00;0.00;;;17.10;99.90;;;;;;5013311;28;20050;-85
2022/09/13 04:24:26;;;;;;;0.00;0.00;;;16.60;99.90;;;;;;5013106;28;20556;-85
2022/09/13 04:26:54;;;;;;;0.00;0.00;;;16.60;99.90;;;;;;5008015;28;20052;-86
2022/09/13 04:29:22;;;;;;;0.00;0.00;;;16.60;99.90;;;;;;5006245;28;20038;-86
2022/09/13 04:31:51;;;;;;;0.00;0.00;;;16.70;99.90;;;;;;5013330;28;20046;-86
2022/09/13 04:34:17;;;;;;;0.00;0.00;;;16.70;99.90;;;;;;4999702;28;20064;-84
2022/09/13 04:36:44;;;;;;;0.00;0.00;;;16.70;99.90;;;;;;5002741;28;20686;-85
2022/09/13 04:39:14;;;;;;;0.00;0.00;;;16.70;99.90;;;;;;5009370;28;20477;-85
2022/09/13 04:41:45;;;;;;;0.00;0.00;;;16.70;99.90;;;;;;5005817;28;20050;-85
2022/09/13 04:44:13;;;;;;;0.00;0.00;;;16.70;99.90;;;;;;5008465;28;20042;-86
2022/09/13 04:46:40;;;;;;;0.00;0.00;;;16.80;99.90;;;;;;5009335;28;20056;-85
2022/09/13 04:49:09;;;;;;;0.00;0.00;;;16.80;99.90;;;;;;5005018;28;20053;-86
2022/09/13 04:51:35;;;;;;;0.00;0.00;;;16.80;99.90;;;;;;5009816;28;20068;-84
2022/09/13 04:54:02;;;;;;;0.00;0.00;;;16.90;99.90;;;;;;5012508;28;20567;-85
2022/09/13 04:56:29;;;;;;;0.00;0.00;;;16.90;99.90;;;;;;5012699;28;20129;-86
2022/09/13 04:58:57;;;;;;;0.05;0.05;;;16.90;99.90;;;;;;5012931;28;20050;-86
2022/09/13 05:01:24;;;;;;;0.00;0.00;;;16.90;99.90;;;;;;5011258;28;20041;-86
2022/09/13 05:03:54;;;;;;;0.03;0.03;;;16.90;99.90;;;;;;5009676;28;20046;-85
2022/09/13 05:06:21;;;;;;;0.00;0.00;;;16.90;99.90;;;;;;5028599;28;20085;-85
2022/09/13 05:08:51;;;;;;;0.00;0.00;;;16.90;99.90;;;;;;5015092;28;20067;-85
2022/09/13 05:11:18;;;;;;;;;;;16.90;99.90;;;;;;5013050;28;20042;-86
2022/09/13 05:13:51;;;;;;;0.00;0.00;;;17.00;99.90;;;;;;5013054;28;19968;-86
2022/09/13 05:16:20;;;;;;;0.00;0.00;;;17.00;99.90;;;;;;5028262;28;20421;-85
2022/09/13 05:18:47;;;;;;;0.00;0.00;;;17.00;99.90;;;;;;5013268;28;20053;-86
2022/09/13 05:21:14;;;;;;;0.00;0.00;;;17.00;99.90;;;;;;5014180;28;20029;-86
2022/09/13 05:23:40;;;;;;;0.00;0.00;;;16.90;99.90;;;;;;5012159;28;20046;-85
2022/09/13 05:26:07;;;;;;;0.00;0.00;;;16.90;99.90;;;;;;5010892;28;20034;-86
2022/09/13 05:28:35;;;;;;;0.00;0.00;;;17.00;99.90;;;;;;5014422;28;20046;-83
2022/09/13 05:31:04;;;;;;;0.00;0.00;;;17.10;99.90;;;;;;5015172;28;20038;-86
2022/09/13 05:33:35;;;;;;;0.00;0.00;;;17.20;99.90;;;;;;5013109;28;20051;-85
2022/09/13 05:36:02;;;;;;;0.00;0.00;;;17.20;99.90;;;;;;5012786;28;22425;-85
2022/09/13 05:38:28;;;;;;;0.00;0.00;;;17.20;99.90;;;;;;5012116;28;20034;-87
2022/09/13 05:40:57;;;;;;;0.00;0.00;;;17.30;99.90;;;;;;5013899;28;20506;-86
2022/09/13 05:43:26;;;;;;;0.00;0.00;;;17.40;99.90;;;;;;5013068;28;20081;-86
2022/09/13 05:45:59;;;;;;;0.03;0.03;;;17.40;99.90;;;;;;5010444;28;20037;-87
2022/09/13 05:48:26;;;;;;;0.00;0.00;;;17.40;99.90;;;;;;5015134;28;20050;-85
2022/09/13 05:50:54;;;;;;;0.00;0.00;;;17.50;99.90;;;;;;5013223;28;20073;-86
2022/09/13 05:53:24;;;;;;;0.00;0.00;;;17.50;99.90;;;;;;5017284;28;20042;-86
2022/09/13 05:55:51;;;;;;;0.00;0.00;;;17.50;99.90;;;;;;5012026;28;20128;-86
2022/09/13 05:58:17;;;;;;;0.00;0.00;;;17.60;99.90;;;;;;5016682;28;21738;-85
2022/09/13 06:00:44;;;;;;;0.00;0.00;;;17.60;99.90;;;;;;5013635;28;20030;-86
2022/09/13 06:03:11;;;;;;;0.00;0.00;;;17.60;99.90;;;;;;5013596;28;20053;-84
2022/09/13 06:05:38;;;;;;;0.00;0.00;;;17.60;99.90;;;;;;5012594;28;20042;-86
2022/09/13 06:08:07;;;;;;;0.00;0.00;;;17.60;99.90;;;;;;5033442;28;20488;-85
2022/09/13 06:10:33;;;;;;;0.00;0.00;;;17.60;99.90;;;;;;5010569;28;20557;-85
2022/09/13 06:13:00;;;;;;;0.10;0.10;;;17.70;99.90;;;;;;5013717;28;20061;-86
2022/09/13 06:15:27;;;;;;;0.00;0.00;;;17.70;99.90;;;;;;5014966;28;20045;-86
2022/09/13 06:17:54;;;;;;;0.00;0.00;;;17.70;99.90;;;;;;5019106;28;20049;-86
2022/09/13 06:20:20;;;;;;;0.00;0.00;;;17.70;99.90;;;;;;5012596;28;20034;-85
2022/09/13 06:22:47;;;;;;;0.00;0.00;;;17.80;99.90;;;;;;5016245;28;20445;-86
2022/09/13 06:25:15;;;;;;;0.00;0.00;;;17.90;99.90;;;;;;5021151;28;20041;-86
2022/09/13 06:27:42;;;;;;;0.00;0.00;;;18.00;99.90;;;;;;5024873;28;20108;-86
2022/09/13 06:30:11;;;;;;;0.00;0.00;;;18.00;99.90;;;;;;5015407;28;20642;-86
2022/09/13 06:32:38;;;;;;;0.00;0.00;;;18.10;99.90;;;;;;5017277;28;20089;-86
2022/09/13 06:35:07;;;;;;;0.00;0.00;;;18.10;99.90;;;;;;5017088;28;20050;-86
2022/09/13 06:37:33;;;;;;;0.00;0.00;;;18.20;99.90;;;;;;5022572;28;20050;-86
2022/09/13 06:40:00;;;;;;;0.00;0.00;;;18.20;99.90;;;;;;5016732;28;20573;-85
2022/09/13 06:42:29;;;;;;;0.00;0.00;;;18.20;99.90;;;;;;5009723;28;20034;-85
2022/09/13 06:44:55;;;;;;;0.00;0.00;;;18.10;99.90;;;;;;5014177;28;20044;-86
2022/09/13 06:47:22;;;;;;;0.00;0.00;;;18.00;99.90;;;;;;5015957;28;20128;-86
2022/09/13 06:49:49;;;;;;;0.00;0.00;;;18.00;99.90;;;;;;5014385;28;20138;-86
2022/09/13 06:52:16;;;;;;;0.00;0.00;;;18.10;99.90;;;;;;5012498;28;20041;-85
2022/09/13 06:54:43;;;;;;;0.00;0.00;;;18.10;99.90;;;;;;5014488;28;20056;-86
2022/09/13 06:57:09;;;;;;;0.00;0.00;;;18.00;99.90;;;;;;5014449;28;20048;-85
2022/09/13 06:59:37;;;;;;;0.00;0.00;;;18.00;99.90;;;;;;5010696;28;20109;-86
2022/09/13 07:02:04;;;;;;;0.00;0.00;;;18.00;99.90;;;;;;5013764;28;20042;-86
2022/09/13 07:04:31;;;;;;;0.00;0.00;;;18.10;99.90;;;;;;5023123;28;20483;-86
2022/09/13 07:06:58;;;;;;;0.00;0.00;;;18.00;99.90;;;;;;5023857;28;20041;-86
2022/09/13 07:09:25;;;;;;;0.00;0.00;;;18.20;99.90;;;;;;5014895;28;20044;-86
2022/09/13 07:11:54;;;;;;;0.00;0.00;;;18.20;99.90;;;;;;5008850;28;20029;-86
2022/09/13 07:14:23;;;;;;;0.00;0.00;;;18.30;99.90;;;;;;5029315;28;20046;-85
2022/09/13 07:16:51;;;;;;;0.00;0.00;;;18.40;99.90;;;;;;5018240;28;20508;-86
2022/09/13 07:19:21;;;;;;;0.00;0.00;;;18.50;99.90;;;;;;5016438;28;20088;-86
2022/09/13 07:21:49;;;;;;;0.00;0.00;;;18.50;99.90;;;;;;5021695;28;20034;-86
2022/09/13 07:24:16;;;;;;;0.00;0.00;;;18.60;99.90;;;;;;5021458;28;20049;-85
2022/09/13 07:26:43;;;;;;;0.00;0.00;;;18.70;99.90;;;;;;5033012;28;20068;-86
2022/09/13 07:29:13;;;;;;;0.00;0.00;;;18.70;99.90;;;;;;5017864;28;20049;-86
2022/09/13 07:31:42;;;;;;;0.00;0.00;;;18.80;99.90;;;;;;5032172;28;20045;-86
2022/09/13 07:34:14;;;;;;;0.00;0.00;;;18.80;99.90;;;;;;5029296;28;20049;-87
2022/09/13 07:36:41;;;;;;;0.00;0.00;;;18.90;99.90;;;;;;5017587;28;20056;-86
2022/09/13 07:39:08;;;;;;;0.00;0.00;;;18.70;99.90;;;;;;5034702;28;20585;-86
2022/09/13 07:41:41;;;;;;;0.00;0.00;;;18.80;99.90;;;;;;5013751;28;20047;-86
2022/09/13 07:44:09;;;;;;;0.00;0.00;;;18.80;99.90;;;;;;5028521;28;20048;-86
2022/09/13 07:46:38;;;;;;;0.00;0.00;;;18.80;99.90;;;;;;5011457;28;20129;-85
2022/09/13 07:49:06;;;;;;;0.00;0.00;;;18.80;99.90;;;;;;5023005;28;20406;-86
2022/09/13 07:51:37;;;;;;;0.00;0.00;;;18.80;99.90;;;;;;5007977;28;20105;-87
2022/09/13 07:54:05;;;;;;;0.00;0.00;;;18.90;99.90;;;;;;5015761;28;20076;-86
2022/09/13 07:56:34;;;;;;;0.00;0.00;;;19.00;99.90;;;;;;5013098;28;20187;-86
2022/09/13 07:59:03;;;;;;;0.00;0.00;;;19.10;99.90;;;;;;5066938;22;20051;-80
2022/09/13 08:01:34;;;;;;;0.00;0.00;;;19.20;99.90;;;;;;5026717;28;20428;-82
2022/09/13 08:04:04;;;;;;;0.00;0.00;;;19.20;99.90;;;;;;5031854;28;20045;-80
2022/09/13 08:06:32;;;;;;;0.00;0.00;;;19.30;99.90;;;;;;5031193;28;20079;-80
2022/09/13 08:09:01;;;;;;;0.00;0.00;;;19.40;99.90;;;;;;5046336;28;20040;-80
2022/09/13 08:11:30;;;;;;;0.00;0.00;;;19.40;99.90;;;;;;5027875;28;20451;-81
2022/09/13 08:13:57;;;;;;;0.00;0.00;;;19.50;99.90;;;;;;5024380;28;20068;-82
2022/09/13 08:16:25;;;;;;;0.00;0.00;;;19.30;99.90;;;;;;5040451;28;20045;-81
2022/09/13 08:18:54;;;;;;;0.00;0.00;;;19.30;99.90;;;;;;5028176;28;20055;-81
2022/09/13 08:21:22;;;;;;;0.00;0.00;;;19.30;99.90;;;;;;5030199;28;20585;-80
2022/09/13 08:23:53;;;;;;;0.00;0.00;;;19.40;99.90;;;;;;5037395;28;20048;-80
2022/09/13 08:26:21;;;;;;;0.00;0.00;;;19.40;99.90;;;;;;5034924;28;20045;-81
2022/09/13 08:28:48;;;;;;;0.00;0.00;;;19.50;99.90;;;;;;5058633;28;20137;-81
2022/09/13 08:31:16;;;;;;;0.00;0.00;;;19.70;99.90;;;;;;5025369;28;20166;-80
2022/09/13 08:33:45;;;;;;;0.00;0.00;;;19.70;99.90;;;;;;5031257;28;20052;-82
2022/09/13 08:36:13;;;;;;;0.00;0.00;;;19.80;99.90;;;;;;5040317;28;20052;-80
2022/09/13 08:38:44;;;;;;;0.00;0.00;;;19.80;99.90;;;;;;5044869;28;20671;-81
2022/09/13 08:41:32;;;;;;;0.00;0.00;;;19.80;99.90;;;;;;5035201;28;20113;-80
2022/09/13 08:44:04;;;;;;;0.00;0.00;;;19.90;99.90;;;;;;5022033;28;20048;-80
2022/09/13 08:46:38;;;;;;;0.00;0.00;;;19.90;99.90;;;;;;5035020;28;20041;-82
2022/09/13 08:49:16;;;;;;;0.00;0.00;;;19.90;99.90;;;;;;5016166;28;20095;-80
2022/09/13 08:51:46;;;;;;;0.00;0.00;;;19.90;99.90;;;;;;5047613;28;20049;-80
2022/09/13 08:54:15;;;;;;;0.00;0.00;;;20.00;99.90;;;;;;5037098;28;20412;-82
2022/09/13 08:56:55;;;;;;;0.00;0.00;;;20.10;99.90;;;;;;5036872;28;20187;-81
2022/09/13 08:59:30;;;;;;;0.00;0.00;;;20.10;99.90;;;;;;5039044;28;20048;-82
2022/09/13 09:02:10;;;;;;;0.00;0.00;;;20.00;99.90;;;;;;5036968;28;20244;-81
2022/09/13 09:04:43;;;;;;;0.00;0.00;;;20.10;99.90;;;;;;5038529;28;20049;-81
2022/09/13 09:07:14;;;;;;;0.00;0.00;;;20.00;99.90;;;;;;5021268;28;20111;-81
2022/09/13 09:09:45;;;;;;;0.00;0.00;;;20.00;99.90;;;;;;5052462;28;20049;-79
2022/09/13 09:12:21;;;;;;;0.00;0.00;;;20.10;99.90;;;;;;5028774;28;20033;-83
2022/09/13 09:14:59;;;;;;;0.00;0.00;;;20.10;99.90;;;;;;5057002;28;20145;-80
2022/09/13 09:17:30;;;;;;;0.00;0.00;;;20.10;99.90;;;;;;5034050;28;20051;-81
2022/09/13 09:20:08;;;;;;;0.00;0.00;;;20.20;99.90;;;;;;5028633;28;20040;-80
2022/09/13 09:22:35;;;;;;;0.00;0.00;;;20.30;99.90;;;;;;5024300;28;20040;-80
2022/09/13 09:25:03;;;;;;;0.00;0.00;;;20.40;99.90;;;;;;5031339;28;20124;-80
2022/09/13 09:27:32;;;;;;;0.00;0.00;;;20.30;99.90;;;;;;5057943;28;20048;-81
2022/09/13 09:30:00;;;;;;;0.00;0.00;;;20.30;99.90;;;;;;5032936;28;20090;-82
2022/09/13 09:32:54;;;;;;;0.00;0.00;;;20.50;99.90;;;;;;5059514;28;20361;-84
2022/09/13 09:35:34;;;;;;;0.00;0.00;;;20.60;99.90;;;;;;5025166;28;20132;-84
2022/09/13 09:38:33;;;;;;;0.00;0.00;;;20.80;99.90;;;;;;5036790;28;20040;-83
2022/09/13 09:41:04;;;;;;;0.00;0.00;;;20.80;99.90;;;;;;5040675;28;20091;-83
2022/09/13 09:43:36;;;;;;;0.00;0.00;;;20.90;99.90;;;;;;5046061;28;20393;-81
2022/09/13 09:46:07;;;;;;;0.00;0.00;;;20.80;99.90;;;;;;5057889;28;20550;-79
2022/09/13 09:48:40;;;;;;;0.00;0.00;;;21.40;99.90;;;;;;5048806;28;20425;-79
2022/09/13 09:51:10;;;;;;;0.00;0.00;;;20.90;99.90;;;;;;5043979;28;20045;-80
2022/09/13 09:53:42;;;;;;;0.00;0.00;;;20.90;99.90;;;;;;5043350;28;20339;-80
2022/09/13 09:56:23;;;;;;;0.00;0.00;;;21.00;99.90;;;;;;5024688;28;20084;-79
2022/09/13 09:58:55;;;;;;;0.00;0.00;;;21.10;99.90;;;;;;5035019;28;20520;-80
2022/09/13 10:01:25;;;;;;;0.00;0.00;;;21.00;99.90;;;;;;5021954;28;20048;-80
2022/09/13 10:04:00;;;;;;;0.00;0.00;;;21.00;99.90;;;;;;5061025;28;20061;-80
2022/09/13 10:06:28;;;;;;;0.00;0.00;;;20.90;99.90;;;;;;5028532;28;20124;-80
2022/09/13 10:09:00;;;;;;;0.00;0.00;;;21.00;99.90;;;;;;5030463;28;20060;-80
2022/09/13 10:11:39;;;;;;;0.00;0.00;;;21.10;99.90;;;;;;5022877;28;20041;-80
2022/09/13 10:14:44;;;;;;;0.00;0.00;;;21.00;99.90;;;;;;5029757;28;20041;-80
2022/09/13 10:17:18;;;;;;;0.00;0.00;;;21.10;99.90;;;;;;5027527;28;20072;-80
2022/09/13 10:19:57;;;;;;;0.00;0.00;;;21.00;99.90;;;;;;5022652;28;20060;-80
2022/09/13 10:22:24;;;;;;;;;;;21.10;99.90;;;;;;5027748;28;20064;-80
2022/09/13 10:24:52;;;;;;;0.00;0.00;;;21.10;99.90;;;;;;5041434;28;19925;-80
2022/09/13 10:27:24;;;;;;;0.00;0.00;;;20.90;99.90;;;;;;5025700;28;20573;-80
2022/09/13 10:29:58;;;;;;;0.00;0.00;;;20.80;99.90;;;;;;5043618;28;20140;-80
2022/09/13 10:32:27;;;;;;;0.00;0.00;;;20.70;99.90;;;;;;5025538;28;20044;-80
2022/09/13 10:34:55;;;;;;;0.00;0.00;;;20.70;99.90;;;;;;5049991;28;20072;-80
2022/09/13 10:37:29;;;;;;;0.00;0.00;;;20.90;99.90;;;;;;5047209;28;20072;-79
2022/09/13 10:40:02;;;;;;;0.00;0.00;;;20.80;99.90;;;;;;5023535;28;20079;-80
2022/09/13 10:42:30;;;;;;;0.00;0.00;;;20.80;99.90;;;;;;5040194;28;20050;-80
2022/09/13 10:45:01;;;;;;;0.00;0.00;;;20.80;99.90;;;;;;5043490;28;20124;-80
2022/09/13 10:47:33;;;;;;;0.00;0.00;;;20.90;99.90;;;;;;5045218;28;20107;-80
2022/09/13 10:50:16;;;;;;;0.00;0.00;;;21.20;99.90;;;;;;5026188;28;20612;-82
2022/09/13 10:52:45;;;;;;;0.00;0.00;;;21.30;99.90;;;;;;5043673;28;20053;-80
2022/09/13 10:55:31;;;;;;;0.00;0.00;;;21.50;99.90;;;;;;5031682;28;20047;-80
2022/09/13 10:58:18;;;;;;;0.00;0.00;;;23.20;99.90;;;;;;5043321;28;20053;-82
2022/09/13 11:01:17;;;;;;;0.00;0.00;;;21.30;99.90;;;;;;5038203;28;20044;-79
2022/09/13 11:04:05;;;;;;;0.00;0.00;;;21.20;99.90;;;;;;5020826;28;20057;-83
2022/09/13 11:06:41;;;;;;;0.00;0.00;;;21.10;99.90;;;;;;5024700;28;20041;-81
2022/09/13 11:09:12;;;;;;;0.00;0.00;;;20.90;99.90;;;;;;5041182;28;20044;-82
2022/09/13 11:11:47;;;;;;;0.00;0.00;;;20.90;99.90;;;;;;5044425;28;20041;-80
2022/09/13 11:14:35;;;;;;;0.00;0.00;;;20.90;99.90;;;;;;5054094;28;20071;-80
2022/09/13 11:17:11;;;;;;;0.00;0.00;;;21.00;99.90;;;;;;5046209;28;20564;-81
2022/09/13 11:20:23;;;;;;;0.00;0.00;;;21.00;99.90;;;;;;5026642;28;20051;-81
2022/09/13 11:23:04;;;;;;;0.00;0.00;;;21.00;99.90;;;;;;5023834;28;20057;-80
2022/09/13 11:25:46;;;;;;;0.00;0.00;;;21.10;99.90;;;;;;5034500;28;20076;-83
2022/09/13 11:28:23;;;;;;;0.00;0.00;;;20.90;99.90;;;;;;5029218;28;20037;-80
2022/09/13 11:31:10;;;;;;;0.00;0.00;;;20.50;99.90;;;;;;5043862;28;20424;-80
2022/09/13 11:33:47;;;;;;;0.00;0.00;;;20.10;99.90;;;;;;5061741;28;20043;-79
2022/09/13 11:36:33;;;;;;;0.00;0.00;;;20.20;99.90;;;;;;5041659;28;20493;-80
2022/09/13 11:39:12;;;;;;;0.00;0.00;;;20.20;99.90;;;;;;5044942;28;20123;-82
2022/09/13 11:41:49;;;;;;;0.00;0.00;;;20.50;99.90;;;;;;5040743;28;20041;-81
2022/09/13 11:44:35;;;;;;;0.00;0.00;;;20.70;99.90;;;;;;5043212;28;20033;-81
2022/09/13 11:47:12;;;;;;;0.00;0.00;;;20.80;99.90;;;;;;5051759;28;20094;-80
2022/09/13 11:50:07;;;;;;;0.00;0.00;;;20.80;99.90;;;;;;5027626;28;20137;-81
2022/09/13 11:52:45;;;;;;;0.00;0.00;;;20.90;99.90;;;;;;5011147;28;20050;-80
2022/09/13 11:55:17;;;;;;;0.00;0.00;;;21.10;99.90;;;;;;5028744;28;20037;-80
2022/09/13 11:57:49;;;;;;;0.00;0.00;;;21.10;99.90;;;;;;5042188;28;20052;-81
2022/09/13 12:00:21;;;;;;;0.00;0.00;;;21.20;99.90;;;;;;5043188;28;20136;-81
2022/09/13 12:03:02;;;;;;;0.00;0.00;;;21.00;99.90;;;;;;5041806;28;20073;-80
2022/09/13 12:05:33;;;;;;;0.00;0.00;;;20.90;99.90;;;;;;5059335;28;20049;-81
2022/09/13 12:08:09;;;;;;;0.00;0.00;;;20.90;99.90;;;;;;5025096;28;20041;-79
2022/09/13 12:10:41;;;;;;;0.00;0.00;;;20.90;99.90;;;;;;5017138;28;20144;-81
2022/09/13 12:13:14;;;;;;;0.00;0.00;;;21.00;99.90;;;;;;5040811;28;20036;-80
2022/09/13 12:15:52;;;;;;;0.00;0.00;;;20.90;99.90;;;;;;5021578;28;20537;-83
2022/09/13 12:18:24;;;;;;;0.00;0.00;;;20.90;99.90;;;;;;5043603;28;20067;-80
2022/09/13 12:20:54;;;;;;;0.00;0.00;;;20.70;99.90;;;;;;5038215;28;20085;-83
2022/09/13 12:23:26;;;;;;;0.00;0.00;;;20.70;99.90;;;;;;5021819;28;20037;-81
2022/09/13 12:25:57;;;;;;;0.00;0.00;;;20.70;99.90;;;;;;5029501;28;20045;-83
2022/09/13 12:28:27;;;;;;;0.00;0.00;;;20.70;99.90;;;;;;5046801;28;20056;-80
2022/09/13 12:30:58;;;;;;;0.00;0.00;;;20.70;99.90;;;;;;5045278;28;20049;-82
2022/09/13 12:33:25;;;;;;;0.00;0.00;;;20.80;99.90;;;;;;5028104;28;20041;-80
2022/09/13 12:36:28;;;;;;;0.00;0.00;;;21.00;99.90;;;;;;5044903;28;20046;-81
2022/09/13 12:39:20;;;;;;;0.00;0.00;;;21.20;99.90;;;;;;5044581;28;20070;-83
2022/09/13 12:42:02;;;;;;;0.00;0.00;;;20.90;99.90;;;;;;5032543;28;20049;-82
2022/09/13 12:44:48;;;;;;;0.00;0.00;;;20.80;99.90;;;;;;5028521;28;20067;-82
2022/09/13 12:47:47;;;;;;;0.00;0.00;;;20.90;99.90;;;;;;5029369;28;20045;-81
2022/09/13 12:50:31;;;;;;;0.00;0.00;;;21.00;99.90;;;;;;5046072;28;20048;-81
2022/09/13 12:53:34;;;;;;;0.00;0.00;;;20.90;99.90;;;;;;5035499;28;20048;-83
2022/09/13 12:56:14;;;;;;;0.00;0.00;;;20.90;99.90;;;;;;5019523;28;20124;-83
2022/09/13 12:58:47;;;;;;;;;;;20.90;99.90;;;;;;5020269;28;20051;-81
2022/09/13 13:01:16;;;;;;;0.00;0.00;;;20.90;99.90;;;;;;5021748;28;19925;-83
2022/09/13 13:03:51;;;;;;;0.00;0.00;;;21.00;99.90;;;;;;5038237;28;20052;-80
2022/09/13 13:06:25;;;;;;;0.00;0.00;;;20.90;99.90;;;;;;5051276;28;20032;-83
2022/09/13 13:08:59;;;;;;;0.00;0.00;;;20.70;99.90;;;;;;5025449;28;20049;-80
2022/09/13 13:11:28;;;;;;;0.00;0.00;;;20.60;99.90;;;;;;5030722;28;20045;-80
2022/09/13 13:13:56;;;;;;;0.00;0.00;;;20.60;99.90;;;;;;5039382;28;20036;-81
2022/09/13 13:16:28;;;;;;;0.00;0.00;;;20.80;99.90;;;;;;5029280;28;20055;-82
2022/09/13 13:18:56;;;;;;;0.00;0.00;;;20.90;99.90;;;;;;5046274;28;20061;-81